Cedar Lake, Texas
Current Conditions -  °F | °C
As of 10:53 AM on Friday 28 Nov 2014 (Local Time) from KLBX Reporting Station
Clear Clear  
Wind Chill: 68°   Ceiling: Unl
Heat Index: 68°   Visibility: 10mi
Dew Point: 54°   Wind: 13mph
Humidity: 61%   Direction: 140°SE
Pressure: 30.32"   Gusts: 20mph
Location:  28.8997°N, 95.7887°W
Report Text: KLBX 281653Z AUTO 14011G17KT 10SM CLR 20/12 A3032 RMK AO2 SLP266 T02000122
Loading
Personal Weather Stations






























Interactive Weather Map New forecast layout! Learn more

10-Day Weather Forecast

Advertisements
Track Severe Weather on mobile